»·PEaware :: N750PT KTUS-KDEN

N750PT :: KTUS-KDEN

FLIGHT INFORMATION

Flight Status: Arrived
Operator: Privately registered:
United States
More flights under this callsign
Pilot: Robert F. (45142)
Aircraft: CIRRUS VISIONJET
(SF50)
More flights by this aircraft type
Origin: KTUS Tucson Intl
United States
Destination: KDEN Denver Intl
United States
More flights between these airports :: More routes between these airports
Route: WLDKT3 SSO J104 ONM SHNPS TBARR3
File this flight plan on PilotEdge
Remarks:
Altitude:
(Current/Filed)
29,000ft
Speed:
(Current/Filed)
290kts
Departed: 08-Sep-23 05:27 PM
Arrived: 08-Sep-23 07:49 PM
Distance/Time
Traveled:
554nm/2:22
Distance/Time
To Go:
Arrived

Flight Plot

Page will automatically refresh every two minutes.

Flight plan parsing failed; only flown route is shown


Map Options




Map Legend


Flown Route
Filed Route
Departure Airport
Arrival Airport
Navaid (VOR, NDB)
Fix

Horizontal Profiles

Position Reports

Time Latitude Longitude Heading Altitude Ground
Speed
08-Sep-23 16:47 32.125486 -110.945514 135 2567ft 0kts
08-Sep-23 16:48 32.125486 -110.945514 135 2567ft 0kts
08-Sep-23 16:49 32.125486 -110.945514 135 2567ft 0kts
08-Sep-23 16:50 32.125486 -110.945514 135 2567ft 0kts
08-Sep-23 16:51 32.125486 -110.945514 135 2567ft 0kts
08-Sep-23 16:52 32.125486 -110.945514 135 2567ft 0kts
08-Sep-23 16:53 32.125486 -110.945514 135 2567ft 0kts
08-Sep-23 16:54 32.125486 -110.945514 135 2567ft 0kts
08-Sep-23 16:56 32.125486 -110.945514 135 2567ft 0kts
08-Sep-23 16:57 32.125486 -110.945514 135 2567ft 0kts
08-Sep-23 16:58 32.125486 -110.945514 135 2567ft 0kts
08-Sep-23 16:59 32.125486 -110.945514 135 2567ft 0kts
08-Sep-23 17:00 32.125486 -110.945514 135 2567ft 0kts
08-Sep-23 17:01 32.125486 -110.945514 135 2567ft 0kts
08-Sep-23 17:02 32.125486 -110.945514 135 2557ft 0kts
08-Sep-23 17:03 32.125486 -110.945514 135 2557ft 0kts
08-Sep-23 17:04 32.125486 -110.945514 135 2557ft 0kts
08-Sep-23 17:06 32.125486 -110.945514 135 2557ft 0kts
08-Sep-23 17:07 32.125486 -110.945514 135 2557ft 0kts
08-Sep-23 17:08 32.125486 -110.945514 135 2557ft 0kts
08-Sep-23 17:09 32.125486 -110.945514 135 2557ft 0kts
08-Sep-23 17:10 32.125486 -110.945514 135 2557ft 0kts
08-Sep-23 17:11 32.125467 -110.945332 59 2567ft 2kts
08-Sep-23 17:12 32.125932 -110.945260 315 2568ft 0kts
08-Sep-23 17:13 32.126010 -110.945353 313 2568ft 4kts
08-Sep-23 17:14 32.125370 -110.946943 225 2565ft 4kts
08-Sep-23 17:15 32.124291 -110.946515 136 2565ft 5kts
08-Sep-23 17:16 32.122721 -110.944695 135 2572ft 11kts
08-Sep-23 17:17 32.119999 -110.941503 134 2581ft 14kts
08-Sep-23 17:18 32.117089 -110.938090 135 2588ft 14kts
08-Sep-23 17:19 32.114626 -110.935203 134 2602ft 12kts
08-Sep-23 17:20 32.111586 -110.931626 134 2612ft 16kts
08-Sep-23 17:21 32.108825 -110.928389 135 2622ft 11kts
08-Sep-23 17:22 32.106132 -110.925234 135 2637ft 13kts
08-Sep-23 17:23 32.103888 -110.922595 135 2643ft 6kts
08-Sep-23 17:24 32.103101 -110.922523 225 2645ft 0kts
08-Sep-23 17:25 32.103101 -110.922523 225 2645ft 0kts
08-Sep-23 17:26 32.102611 -110.923519 291 2645ft 5kts
08-Sep-23 17:27 32.114997 -110.939155 311 3323ft 102kts
08-Sep-23 17:28 32.144689 -110.974021 314 4175ft 169kts
08-Sep-23 17:29 32.177702 -111.012523 314 5805ft 168kts
08-Sep-23 17:30 32.213379 -111.048508 338 7215ft 177kts
08-Sep-23 17:31 32.259466 -111.031026 39 8642ft 190kts
08-Sep-23 17:32 32.298937 -110.988717 59 10032ft 194kts
08-Sep-23 17:33 32.307102 -110.925840 84 11328ft 196kts
08-Sep-23 17:33 32.310852 -110.872264 85 12446ft 197kts
08-Sep-23 17:35 32.316225 -110.795837 86 14024ft 202kts
08-Sep-23 17:36 32.320906 -110.728632 87 15214ft 208kts
08-Sep-23 17:37 32.325707 -110.659574 87 16453ft 214kts
08-Sep-23 17:38 32.330658 -110.587700 88 17709ft 219kts
08-Sep-23 17:38 32.328614 -110.527426 95 18673ft 223kts
08-Sep-23 17:39 32.325484 -110.453480 95 19780ft 228kts
08-Sep-23 17:40 32.322232 -110.377600 95 20890ft 233kts
08-Sep-23 17:42 32.318318 -110.288362 96 22294ft 233kts
08-Sep-23 17:43 32.316137 -110.237899 96 23085ft 234kts
08-Sep-23 17:43 32.313639 -110.181857 95 23889ft 235kts
08-Sep-23 17:44 32.310145 -110.104126 95 24885ft 239kts
08-Sep-23 17:45 32.306576 -110.025200 94 25929ft 241kts
08-Sep-23 17:46 32.302875 -109.945600 94 26909ft 243kts
08-Sep-23 17:47 32.299088 -109.865188 94 27928ft 246kts
08-Sep-23 17:48 32.295208 -109.784007 94 28917ft 249kts
08-Sep-23 17:49 32.290919 -109.694907 94 28937ft 289kts
08-Sep-23 17:50 32.286118 -109.596330 94 28919ft 310kts
08-Sep-23 17:51 32.280980 -109.492728 94 28915ft 320kts
08-Sep-23 17:52 32.275624 -109.386699 94 28913ft 327kts
08-Sep-23 17:53 32.275389 -109.278904 74 28902ft 332kts
08-Sep-23 17:54 32.330060 -109.193872 41 28898ft 330kts
08-Sep-23 17:55 32.396483 -109.117811 41 28901ft 333kts
08-Sep-23 17:56 32.463029 -109.041556 41 28907ft 333kts
08-Sep-23 17:57 32.529708 -108.964975 41 28919ft 334kts
08-Sep-23 17:58 32.596373 -108.888308 41 28934ft 334kts
08-Sep-23 17:59 32.663069 -108.811409 41 28949ft 334kts
08-Sep-23 18:00 32.729532 -108.734638 41 28963ft 333kts
08-Sep-23 18:01 32.795825 -108.657817 41 28974ft 333kts
08-Sep-23 18:02 32.862140 -108.580890 41 28990ft 333kts
08-Sep-23 18:03 32.928391 -108.503806 41 29007ft 333kts
08-Sep-23 18:04 32.994547 -108.426681 41 29026ft 332kts
08-Sep-23 18:05 33.060562 -108.349538 41 29046ft 332kts
08-Sep-23 18:06 33.126216 -108.272703 41 29066ft 330kts
08-Sep-23 18:07 33.191678 -108.195867 41 29077ft 330kts
08-Sep-23 18:08 33.257245 -108.118739 41 29088ft 331kts
08-Sep-23 18:09 33.322692 -108.041583 41 29086ft 332kts
08-Sep-23 18:10 33.388290 -107.964045 42 29080ft 331kts
08-Sep-23 18:11 33.453841 -107.886389 42 29072ft 331kts
08-Sep-23 18:12 33.519490 -107.808457 42 29065ft 331kts
08-Sep-23 18:13 33.584907 -107.730604 42 29060ft 332kts
08-Sep-23 18:14 33.650336 -107.652592 42 29053ft 331kts
08-Sep-23 18:15 33.715672 -107.574519 42 29046ft 332kts
08-Sep-23 18:16 33.780904 -107.496367 42 29033ft 332kts
08-Sep-23 18:17 33.846283 -107.417874 42 29036ft 331kts
08-Sep-23 18:18 33.911344 -107.339570 42 29030ft 332kts
08-Sep-23 18:19 33.976749 -107.260668 42 29071ft 332kts
08-Sep-23 18:20 34.041970 -107.181811 42 29118ft 332kts
08-Sep-23 18:21 34.107427 -107.102474 42 29152ft 332kts
08-Sep-23 18:22 34.172581 -107.023311 42 29160ft 333kts
08-Sep-23 18:23 34.237902 -106.943808 42 29123ft 333kts
08-Sep-23 18:24 34.303201 -106.864152 42 29063ft 333kts
08-Sep-23 18:25 34.383792 -106.822575 354 28977ft 317kts
08-Sep-23 18:26 34.472059 -106.826847 353 28980ft 317kts
08-Sep-23 18:27 34.556711 -106.830912 353 28979ft 317kts
08-Sep-23 18:28 34.644660 -106.835105 353 28980ft 317kts
08-Sep-23 18:29 34.732765 -106.839336 353 28985ft 316kts
08-Sep-23 18:30 34.821017 -106.843575 353 29062ft 316kts
08-Sep-23 18:31 34.908648 -106.847818 353 29125ft 316kts
08-Sep-23 18:32 34.996436 -106.852084 352 29234ft 316kts
08-Sep-23 18:33 35.084334 -106.856354 352 29313ft 316kts
08-Sep-23 18:34 35.172016 -106.860628 352 29311ft 316kts
08-Sep-23 18:35 35.259917 -106.864892 352 29271ft 316kts
08-Sep-23 18:36 35.347879 -106.869179 352 29192ft 316kts
08-Sep-23 18:37 35.435624 -106.873475 352 29110ft 316kts
08-Sep-23 18:38 35.523501 -106.877774 352 29064ft 316kts
08-Sep-23 18:39 35.611118 -106.882072 352 29079ft 315kts
08-Sep-23 18:40 35.698801 -106.886428 352 29098ft 315kts
08-Sep-23 18:41 35.786421 -106.890729 352 29110ft 314kts
08-Sep-23 18:42 35.873733 -106.895071 352 29132ft 314kts
08-Sep-23 18:43 35.960910 -106.899404 352 29143ft 313kts
08-Sep-23 18:44 36.048155 -106.903725 352 29150ft 313kts
08-Sep-23 18:45 36.135138 -106.908029 352 29156ft 313kts
08-Sep-23 18:46 36.222204 -106.912374 352 29158ft 313kts
08-Sep-23 18:47 36.309032 -106.916721 352 29160ft 312kts
08-Sep-23 18:48 36.395819 -106.921094 351 29163ft 312kts
08-Sep-23 18:49 36.482562 -106.925447 351 29166ft 311kts
08-Sep-23 18:50 36.569143 -106.929820 351 29176ft 311kts
08-Sep-23 18:51 36.655600 -106.934189 351 29185ft 310kts
08-Sep-23 18:52 36.741968 -106.938541 351 29194ft 310kts
08-Sep-23 18:53 36.828230 -106.942926 351 29210ft 310kts
08-Sep-23 18:54 36.914476 -106.947296 351 29219ft 310kts
08-Sep-23 18:55 37.000742 -106.951677 351 29283ft 310kts
08-Sep-23 18:56 37.086821 -106.956070 351 29358ft 310kts
08-Sep-23 18:57 37.173040 -106.960480 351 29422ft 310kts
08-Sep-23 18:58 37.259296 -106.964923 351 29457ft 310kts
08-Sep-23 18:59 37.345521 -106.969357 351 29453ft 309kts
08-Sep-23 19:00 37.431654 -106.973798 351 29420ft 309kts
08-Sep-23 19:01 37.517594 -106.978206 350 29382ft 309kts
08-Sep-23 19:02 37.603623 -106.982638 351 29350ft 308kts
08-Sep-23 19:03 37.689376 -106.987097 351 29354ft 309kts
08-Sep-23 19:04 37.775141 -106.991549 351 29364ft 308kts
08-Sep-23 19:05 37.860774 -106.996028 351 29369ft 308kts
08-Sep-23 19:06 37.946381 -107.000482 351 29359ft 307kts
08-Sep-23 19:07 38.032001 -107.004987 351 29348ft 308kts
08-Sep-23 19:08 38.117658 -107.005994 4 29343ft 316kts
08-Sep-23 19:09 38.191947 -106.942599 46 29328ft 339kts
08-Sep-23 19:10 38.252469 -106.850671 45 29351ft 339kts
08-Sep-23 19:11 38.313045 -106.758382 45 29366ft 339kts
08-Sep-23 19:12 38.373282 -106.666377 45 29372ft 338kts
08-Sep-23 19:13 38.433506 -106.574132 45 29339ft 338kts
08-Sep-23 19:14 38.493610 -106.481816 46 29296ft 338kts
08-Sep-23 19:15 38.553600 -106.389423 46 29344ft 337kts
08-Sep-23 19:16 38.613300 -106.297195 46 29389ft 337kts
08-Sep-23 19:17 38.673081 -106.204928 45 29419ft 336kts
08-Sep-23 19:18 38.733178 -106.113149 45 29488ft 336kts
08-Sep-23 19:19 38.792150 -106.022709 45 28873ft 325kts
08-Sep-23 19:20 38.849938 -105.933861 46 27786ft 326kts
08-Sep-23 19:21 38.907950 -105.844330 46 26660ft 327kts
08-Sep-23 19:22 38.966057 -105.754127 46 25525ft 328kts
08-Sep-23 19:23 39.024350 -105.663390 46 24440ft 329kts
08-Sep-23 19:24 39.082774 -105.572225 47 23348ft 330kts
08-Sep-23 19:25 39.141050 -105.481008 47 22283ft 331kts
08-Sep-23 19:26 39.199150 -105.388921 48 21231ft 330kts
08-Sep-23 19:27 39.256844 -105.297088 49 20187ft 330kts
08-Sep-23 19:28 39.323196 -105.217020 34 18889ft 327kts
08-Sep-23 19:29 39.397071 -105.148211 34 17841ft 328kts
08-Sep-23 19:30 39.470612 -105.078702 37 16972ft 326kts
08-Sep-23 19:31 39.537345 -105.008783 37 16848ft 291kts
08-Sep-23 19:32 39.592159 -104.934509 47 15458ft 279kts
08-Sep-23 19:33 39.642091 -104.859503 47 14109ft 270kts
08-Sep-23 19:34 39.690510 -104.787042 47 13014ft 260kts
08-Sep-23 19:35 39.737883 -104.716471 47 13013ft 234kts
08-Sep-23 19:36 39.783220 -104.648746 47 13000ft 263kts
08-Sep-23 19:37 39.831505 -104.576999 47 13031ft 261kts
08-Sep-23 19:38 39.893665 -104.536073 18 11566ft 249kts
08-Sep-23 19:39 39.956805 -104.508407 18 7948ft 224kts
08-Sep-23 19:40 40.019393 -104.495569 2 7916ft 233kts
08-Sep-23 19:41 40.074502 -104.509066 306 7717ft 213kts
08-Sep-23 19:42 40.066253 -104.583654 244 6924ft 214kts
08-Sep-23 19:43 40.040119 -104.654171 243 6947ft 216kts
08-Sep-23 19:44 39.990884 -104.658195 165 6962ft 207kts
08-Sep-23 19:45 39.939048 -104.659711 176 6851ft 154kts
08-Sep-23 19:46 39.897818 -104.659438 176 6111ft 122kts
08-Sep-23 19:47 39.866455 -104.659960 180 5448ft 107kts
08-Sep-23 19:48 39.850072 -104.660259 180 5355ft 25kts
08-Sep-23 19:49 39.843418 -104.660341 182 5361ft 20kts
08-Sep-23 19:50 39.840145 -104.662088 262 5359ft 7kts
08-Sep-23 19:51 39.839476 -104.664756 267 5359ft 6kts
08-Sep-23 19:52 39.839091 -104.665540 269 5359ft 0kts
08-Sep-23 19:53 39.839091 -104.665540 269 5359ft 0kts

Navigation Log

Ident Type
Flight plan parsing failed, navigation log unavailable